createdAt,value
2019-05-19T00:01:27.484Z,16.87
2019-05-19T00:03:58.690Z,17.30
2019-05-19T00:06:29.293Z,17.12
2019-05-19T00:09:00.138Z,17.25
2019-05-19T00:11:31.037Z,17.55
2019-05-19T00:14:02.073Z,18.02
2019-05-19T00:16:32.718Z,18.70
2019-05-19T00:19:03.474Z,17.85
2019-05-19T00:21:34.609Z,17.73
2019-05-19T00:24:05.365Z,17.45
2019-05-19T00:26:36.277Z,16.42
2019-05-19T00:29:07.049Z,16.77
2019-05-19T00:31:37.882Z,16.77
2019-05-19T00:34:08.938Z,17.07
2019-05-19T00:36:39.733Z,16.75
2019-05-19T00:39:10.483Z,16.45
2019-05-19T00:41:41.214Z,16.07
2019-05-19T00:44:12.182Z,16.48
2019-05-19T00:46:43.269Z,16.45
2019-05-19T00:49:14.219Z,16.48
2019-05-19T00:51:45.075Z,17.57
2019-05-19T00:54:15.958Z,16.85
2019-05-19T00:56:46.668Z,16.12
2019-05-19T00:59:17.813Z,16.90
2019-05-19T01:01:48.619Z,16.60
2019-05-19T01:04:19.741Z,17.32
2019-05-19T01:06:50.687Z,17.12
2019-05-19T01:09:21.581Z,17.62
2019-05-19T01:11:52.481Z,17.10
2019-05-19T01:14:23.332Z,18.10
2019-05-19T01:16:54.561Z,17.10
2019-05-19T01:19:25.314Z,16.93
2019-05-19T01:21:56.235Z,17.85
2019-05-19T01:24:27.189Z,17.62
2019-05-19T01:26:58.335Z,17.62
2019-05-19T01:29:29.458Z,17.45
2019-05-19T01:32:00.416Z,16.50
2019-05-19T01:34:31.037Z,16.50
2019-05-19T01:37:01.842Z,16.85
2019-05-19T01:39:32.968Z,16.42
2019-05-19T01:42:04.097Z,16.65
2019-05-19T01:44:34.920Z,15.68
2019-05-19T01:47:05.553Z,16.67
2019-05-19T01:49:36.490Z,15.70
2019-05-19T01:52:07.144Z,15.65
2019-05-19T01:54:37.803Z,16.12
2019-05-19T01:57:08.476Z,16.05
2019-05-19T01:59:39.230Z,16.12
2019-05-19T02:02:10.133Z,15.25
2019-05-19T02:04:41.046Z,15.45
2019-05-19T02:07:11.859Z,15.08
2019-05-19T02:09:42.811Z,15.50
2019-05-19T02:12:14.504Z,15.53
2019-05-19T02:14:45.308Z,15.23
2019-05-19T02:17:16.005Z,14.75
2019-05-19T02:19:46.941Z,14.13
2019-05-19T02:22:17.639Z,15.03
2019-05-19T02:24:48.557Z,14.43
2019-05-19T02:27:19.343Z,14.95
2019-05-19T02:29:50.419Z,14.58
2019-05-19T02:32:21.211Z,14.70
2019-05-19T02:34:52.477Z,14.78
2019-05-19T02:37:23.214Z,13.22
2019-05-19T02:39:54.168Z,13.83
2019-05-19T02:42:24.877Z,13.98
2019-05-19T02:44:55.637Z,14.38
2019-05-19T02:47:26.376Z,13.75
2019-05-19T02:49:57.415Z,13.70
2019-05-19T02:52:28.669Z,13.88
2019-05-19T02:54:59.917Z,13.53
2019-05-19T02:57:31.744Z,12.90
2019-05-19T03:00:02.966Z,13.40
2019-05-19T03:02:33.654Z,13.58
2019-05-19T03:05:04.362Z,13.58
2019-05-19T03:07:35.206Z,13.83
2019-05-19T03:10:06.626Z,13.53
2019-05-19T03:12:37.900Z,13.10
2019-05-19T03:15:08.863Z,13.62
2019-05-19T03:17:39.592Z,13.45
2019-05-19T03:20:10.418Z,13.80
2019-05-19T03:22:41.338Z,13.25
2019-05-19T03:25:12.497Z,13.03
2019-05-19T03:27:43.438Z,13.10
2019-05-19T03:30:32.528Z,12.85
2019-05-19T03:33:04.641Z,12.73
2019-05-19T03:35:35.837Z,12.23
2019-05-19T03:38:06.753Z,11.78
2019-05-19T03:40:37.607Z,12.20
2019-05-19T03:43:08.816Z,12.33
2019-05-19T03:45:39.819Z,12.82
2019-05-19T03:48:10.815Z,12.65
2019-05-19T03:50:42.098Z,13.40
2019-05-19T03:53:12.890Z,12.88
2019-05-19T03:55:43.940Z,13.55
2019-05-19T03:58:14.664Z,12.95
2019-05-19T04:00:45.627Z,12.98
2019-05-19T04:03:16.463Z,12.90
2019-05-19T04:05:47.456Z,12.75
2019-05-19T04:08:18.334Z,12.73
2019-05-19T04:10:49.280Z,13.83
2019-05-19T04:13:20.082Z,13.05
2019-05-19T04:15:51.156Z,13.05
2019-05-19T04:18:22.091Z,12.80
2019-05-19T04:20:52.932Z,13.03
2019-05-19T04:23:23.740Z,13.32
2019-05-19T04:25:54.451Z,13.22
2019-05-19T04:28:25.236Z,14.13
2019-05-19T04:30:56.449Z,12.65
2019-05-19T04:33:27.307Z,12.43
2019-05-19T04:35:58.371Z,12.03
2019-05-19T04:38:29.183Z,12.30
2019-05-19T04:41:00.091Z,12.25
2019-05-19T04:43:30.971Z,11.88
2019-05-19T04:46:02.036Z,12.45
2019-05-19T04:48:32.937Z,13.60
2019-05-19T04:51:03.711Z,12.50
2019-05-19T04:53:34.346Z,12.85
2019-05-19T04:56:05.273Z,13.28
2019-05-19T04:58:36.099Z,13.28
2019-05-19T05:01:06.938Z,12.75
2019-05-19T05:03:37.860Z,13.08
2019-05-19T05:06:08.709Z,13.15
2019-05-19T05:08:39.530Z,13.85
2019-05-19T05:11:10.310Z,13.88
2019-05-19T05:13:41.303Z,13.20
2019-05-19T05:16:12.459Z,12.43
2019-05-19T05:18:43.223Z,12.88
2019-05-19T05:21:13.996Z,13.60
2019-05-19T05:23:44.764Z,12.75
2019-05-19T05:26:15.717Z,13.48
2019-05-19T05:28:46.472Z,12.70
2019-05-19T05:31:17.420Z,11.20
2019-05-19T05:33:48.233Z,11.60
2019-05-19T05:36:19.198Z,10.80
2019-05-19T05:38:49.825Z,11.22
2019-05-19T05:41:20.766Z,12.40
2019-05-19T05:43:51.629Z,12.80
2019-05-19T05:46:22.708Z,13.48
2019-05-19T05:48:53.555Z,12.95
2019-05-19T05:51:24.748Z,13.22
2019-05-19T05:53:56.465Z,11.45
2019-05-19T05:56:27.329Z,14.28
2019-05-19T05:58:58.247Z,15.30
2019-05-19T06:01:29.073Z,13.35
2019-05-19T06:04:00.236Z,13.13
2019-05-19T06:06:31.055Z,12.23
2019-05-19T06:09:01.988Z,12.00
2019-05-19T06:11:32.882Z,12.20
2019-05-19T06:14:03.931Z,12.70
2019-05-19T06:16:34.940Z,12.45
2019-05-19T06:19:05.888Z,14.58
2019-05-19T06:21:36.648Z,12.75
2019-05-19T06:24:07.457Z,12.60
2019-05-19T06:26:38.396Z,12.73
2019-05-19T06:29:09.497Z,12.45
2019-05-19T06:31:40.448Z,11.93
2019-05-19T06:34:11.385Z,12.37
2019-05-19T06:36:42.562Z,11.68
2019-05-19T06:39:13.462Z,11.90
2019-05-19T06:41:44.652Z,11.78
2019-05-19T06:44:15.468Z,12.43
2019-05-19T06:46:46.616Z,11.35
2019-05-19T06:49:17.477Z,12.50
2019-05-19T06:51:48.627Z,10.85
2019-05-19T06:54:19.630Z,10.88
2019-05-19T06:56:50.709Z,10.43
2019-05-19T06:59:21.516Z,11.18
2019-05-19T07:01:52.693Z,12.43
2019-05-19T07:04:23.697Z,12.25
2019-05-19T07:06:54.957Z,11.65
2019-05-19T07:09:25.955Z,12.03
2019-05-19T07:11:57.192Z,11.78
2019-05-19T07:14:29.314Z,11.88
2019-05-19T07:17:02.399Z,11.50
2019-05-19T07:19:36.229Z,11.83
2019-05-19T07:22:07.962Z,12.05
2019-05-19T07:24:41.390Z,11.40
2019-05-19T07:27:13.156Z,11.57
2019-05-19T07:29:46.627Z,11.80
2019-05-19T07:32:19.087Z,11.38
2019-05-19T07:34:50.902Z,11.45
2019-05-19T07:37:22.057Z,11.12
2019-05-19T07:39:53.622Z,10.95
2019-05-19T07:42:24.387Z,11.00
2019-05-19T07:44:55.376Z,10.82
2019-05-19T07:47:26.473Z,10.72
2019-05-19T07:49:57.243Z,11.43
2019-05-19T07:52:28.263Z,10.45
2019-05-19T07:55:01.680Z,14.03
2019-05-19T07:57:32.794Z,12.85
2019-05-19T08:00:03.918Z,11.68
2019-05-19T08:02:34.775Z,11.05
2019-05-19T08:05:05.714Z,12.30
2019-05-19T08:07:36.593Z,11.75
2019-05-19T08:10:08.075Z,10.65
2019-05-19T08:12:39.018Z,11.22
2019-05-19T08:15:10.148Z,12.10
2019-05-19T08:17:40.928Z,10.28
2019-05-19T08:20:11.788Z,11.03
2019-05-19T08:22:43.512Z,10.65
2019-05-19T08:25:14.432Z,10.45
2019-05-19T08:27:45.390Z,10.08
2019-05-19T08:30:16.529Z,9.98
2019-05-19T08:32:47.708Z,10.72
2019-05-19T08:35:18.625Z,10.28
2019-05-19T08:37:49.471Z,11.55
2019-05-19T08:40:20.609Z,10.68
2019-05-19T08:42:51.801Z,10.03
2019-05-19T08:45:22.629Z,10.00
2019-05-19T08:47:53.696Z,10.35
2019-05-19T08:50:24.481Z,9.58
2019-05-19T08:52:55.369Z,8.90
2019-05-19T08:55:26.456Z,10.85
2019-05-19T08:57:57.247Z,9.70
2019-05-19T09:00:28.174Z,9.88
2019-05-19T09:02:59.151Z,9.40
2019-05-19T09:05:30.136Z,8.70
2019-05-19T09:08:00.973Z,9.10
2019-05-19T09:10:31.952Z,9.18
2019-05-19T09:13:03.226Z,9.43
2019-05-19T09:15:34.278Z,9.45
2019-05-19T09:18:05.143Z,8.93
2019-05-19T09:20:35.759Z,8.58
2019-05-19T09:23:06.701Z,8.98
2019-05-19T09:25:37.607Z,9.08
2019-05-19T09:28:08.554Z,9.08
2019-05-19T09:30:39.315Z,8.68
2019-05-19T09:33:10.046Z,8.90
2019-05-19T09:35:41.046Z,8.98
2019-05-19T09:38:11.683Z,8.83
2019-05-19T09:40:42.813Z,8.60
2019-05-19T09:43:13.933Z,8.93
2019-05-19T09:45:45.091Z,8.90
2019-05-19T09:48:16.255Z,8.63
2019-05-19T09:50:47.589Z,8.45
2019-05-19T09:53:18.383Z,8.25
2019-05-19T09:55:49.395Z,9.18
2019-05-19T09:58:20.661Z,8.98
2019-05-19T10:00:52.166Z,8.18
2019-05-19T10:03:23.243Z,7.65
2019-05-19T10:05:54.388Z,8.28
2019-05-19T10:08:31.298Z,8.50
2019-05-19T10:12:16.126Z,8.20
2019-05-19T10:14:47.507Z,7.83
2019-05-19T10:17:19.373Z,8.03
2019-05-19T10:19:51.149Z,7.70
2019-05-19T10:22:23.330Z,7.55
2019-05-19T10:25:10.186Z,7.40
2019-05-19T10:27:27.597Z,7.87
2019-05-19T10:29:59.465Z,7.90
2019-05-19T10:32:30.994Z,8.25
2019-05-19T10:35:02.849Z,7.33
2019-05-19T10:37:34.962Z,8.03
2019-05-19T10:40:07.233Z,7.53
2019-05-19T10:42:40.041Z,7.75
2019-05-19T10:45:11.999Z,7.60
2019-05-19T10:47:43.409Z,6.87
2019-05-19T10:50:15.123Z,7.55
2019-05-19T10:52:46.140Z,7.60
2019-05-19T10:55:19.289Z,7.33
2019-05-19T10:57:50.217Z,7.45
2019-05-19T11:00:22.194Z,7.33
2019-05-19T11:02:53.304Z,7.90
2019-05-19T11:05:25.268Z,7.03
2019-05-19T11:07:56.550Z,7.15
2019-05-19T11:10:27.531Z,6.65
2019-05-19T11:12:59.711Z,7.17
2019-05-19T11:15:31.194Z,6.92
2019-05-19T11:18:06.248Z,6.95
2019-05-19T11:20:37.428Z,6.65
2019-05-19T11:23:09.349Z,7.08
2019-05-19T11:25:51.040Z,6.62
2019-05-19T11:28:17.015Z,6.50
2019-05-19T11:30:49.754Z,6.65
2019-05-19T11:33:21.379Z,7.30
2019-05-19T11:35:54.256Z,6.72
2019-05-19T11:38:26.120Z,6.53
2019-05-19T11:40:58.447Z,6.90
2019-05-19T11:43:30.786Z,6.28
2019-05-19T11:46:03.434Z,7.03
2019-05-19T11:48:36.322Z,6.15
2019-05-19T11:51:08.254Z,6.28
2019-05-19T11:53:40.429Z,5.83
2019-05-19T11:56:12.420Z,7.15
2019-05-19T11:58:45.260Z,6.15
2019-05-19T12:01:16.468Z,7.00
2019-05-19T12:03:49.230Z,6.25
2019-05-19T12:06:20.958Z,6.80
2019-05-19T12:08:52.745Z,7.60
2019-05-19T12:11:25.721Z,5.90
2019-05-19T12:13:58.262Z,6.28
2019-05-19T12:16:30.778Z,6.30
2019-05-19T12:19:02.530Z,6.47
2019-05-19T12:21:34.059Z,6.72
2019-05-19T12:24:06.174Z,5.50
2019-05-19T12:26:37.907Z,5.90
2019-05-19T12:29:09.915Z,5.92
2019-05-19T12:31:42.543Z,5.55
2019-05-19T12:34:14.213Z,5.95
2019-05-19T12:36:45.433Z,5.62
2019-05-19T12:39:17.045Z,5.72
2019-05-19T12:41:48.768Z,6.20
2019-05-19T12:44:20.971Z,5.85
2019-05-19T12:46:54.110Z,5.72
2019-05-19T12:49:25.473Z,5.65
2019-05-19T12:51:56.236Z,5.87
2019-05-19T12:54:27.716Z,5.78
2019-05-19T12:56:59.095Z,5.15
2019-05-19T12:59:31.804Z,6.15
2019-05-19T13:02:03.311Z,5.60
2019-05-19T13:04:35.137Z,5.83
2019-05-19T13:07:07.364Z,5.80
2019-05-19T13:09:38.779Z,5.28
2019-05-19T13:12:10.360Z,5.72
2019-05-19T13:14:41.079Z,5.35
2019-05-19T13:17:13.333Z,5.03
2019-05-19T13:19:44.639Z,5.53
2019-05-19T13:22:16.093Z,5.30
2019-05-19T13:24:47.600Z,5.50
2019-05-19T13:27:19.507Z,4.80
2019-05-19T13:29:50.729Z,5.40
2019-05-19T13:32:23.412Z,5.55
2019-05-19T13:34:56.135Z,5.30
2019-05-19T13:37:27.573Z,5.03
2019-05-19T13:39:58.682Z,4.85
2019-05-19T13:42:29.418Z,5.08
2019-05-19T13:45:00.759Z,4.72
2019-05-19T13:47:31.600Z,5.15
2019-05-19T13:50:02.457Z,5.17
2019-05-19T13:52:33.205Z,4.92
2019-05-19T13:55:04.455Z,5.10
2019-05-19T13:57:35.147Z,5.03
2019-05-19T14:00:06.357Z,4.50
2019-05-19T14:02:37.331Z,4.97
2019-05-19T14:05:10.985Z,5.00
2019-05-19T14:07:42.789Z,4.42
2019-05-19T14:10:13.946Z,4.95
2019-05-19T14:12:45.749Z,5.37
2019-05-19T14:15:16.694Z,4.50
2019-05-19T14:17:47.881Z,4.67
2019-05-19T14:20:18.728Z,4.72
2019-05-19T14:22:49.564Z,4.42
2019-05-19T14:25:20.746Z,4.72
2019-05-19T14:27:51.990Z,4.55
2019-05-19T14:30:22.806Z,4.17
2019-05-19T14:32:53.767Z,4.30
2019-05-19T14:35:24.948Z,4.30
2019-05-19T14:37:55.755Z,4.22
2019-05-19T14:40:26.678Z,4.62
2019-05-19T14:43:02.498Z,4.55
2019-05-19T14:45:33.530Z,4.25
2019-05-19T14:48:04.389Z,4.67
2019-05-19T14:50:35.259Z,4.08
2019-05-19T14:53:06.237Z,4.50
2019-05-19T14:55:37.101Z,4.80
2019-05-19T14:58:08.433Z,4.55
2019-05-19T15:00:39.536Z,4.10
2019-05-19T15:03:10.562Z,4.17
2019-05-19T15:05:41.459Z,4.75
2019-05-19T15:08:13.659Z,4.45
2019-05-19T15:10:45.272Z,4.47
2019-05-19T15:13:16.909Z,4.37
2019-05-19T15:15:48.307Z,4.10
2019-05-19T15:18:20.520Z,4.05
2019-05-19T15:20:51.962Z,4.28
2019-05-19T15:23:24.225Z,3.92
2019-05-19T15:25:55.415Z,3.98
2019-05-19T15:28:26.529Z,4.35
2019-05-19T15:30:58.555Z,4.25
2019-05-19T15:33:37.768Z,4.30
2019-05-19T15:36:03.096Z,4.20
2019-05-19T15:38:34.499Z,4.28
2019-05-19T15:41:05.664Z,4.03
2019-05-19T15:43:38.155Z,4.42
2019-05-19T15:46:09.240Z,3.92
2019-05-19T15:48:40.683Z,4.17
2019-05-19T15:51:11.704Z,3.92
2019-05-19T15:53:42.770Z,3.80
2019-05-19T15:56:14.254Z,3.77
2019-05-19T15:58:45.842Z,3.90
2019-05-19T16:01:16.937Z,4.17
2019-05-19T16:03:48.619Z,4.10
2019-05-19T16:06:19.787Z,3.72
2019-05-19T16:08:51.552Z,3.50
2019-05-19T16:11:22.611Z,3.95
2019-05-19T16:13:53.744Z,3.77
2019-05-19T16:16:24.693Z,3.62
2019-05-19T16:18:56.212Z,4.55
2019-05-19T16:21:27.380Z,3.67
2019-05-19T16:23:58.348Z,4.05
2019-05-19T16:26:29.483Z,4.67
2019-05-19T16:29:00.787Z,3.60
2019-05-19T16:31:32.246Z,4.53
2019-05-19T16:34:03.598Z,3.55
2019-05-19T16:36:35.198Z,3.35
2019-05-19T16:39:07.023Z,4.10
2019-05-19T16:41:38.686Z,3.80
2019-05-19T16:44:09.901Z,3.40
2019-05-19T16:46:40.599Z,3.37
2019-05-19T16:49:11.580Z,3.37
2019-05-19T16:51:42.936Z,3.83
2019-05-19T16:54:22.636Z,3.67
2019-05-19T16:56:53.978Z,3.15
2019-05-19T16:59:27.615Z,3.52
2019-05-19T17:01:59.876Z,3.70
2019-05-19T17:04:30.699Z,3.67
2019-05-19T17:07:03.089Z,4.30
2019-05-19T17:09:34.163Z,4.83
2019-05-19T17:12:06.878Z,7.62
2019-05-19T17:14:37.691Z,5.17
2019-05-19T17:17:08.635Z,6.87
2019-05-19T17:19:39.702Z,7.72
2019-05-19T17:22:10.510Z,5.50
2019-05-19T17:24:41.458Z,5.97
2019-05-19T17:27:12.499Z,5.87
2019-05-19T17:29:45.519Z,6.87
2019-05-19T17:32:19.423Z,17.40
2019-05-19T17:34:51.401Z,13.18
2019-05-19T17:37:21.917Z,11.65
2019-05-19T17:39:52.889Z,11.00
2019-05-19T17:42:23.969Z,11.12
2019-05-19T17:44:54.737Z,10.25
2019-05-19T17:47:25.646Z,6.37
2019-05-19T17:49:56.493Z,11.30
2019-05-19T17:52:27.399Z,129.60
2019-05-19T17:54:58.067Z,198.50
2019-05-19T17:57:28.920Z,284.35
2019-05-19T17:59:59.604Z,231.95
2019-05-19T18:02:30.678Z,230.43
2019-05-19T18:05:01.517Z,103.42
2019-05-19T18:07:32.180Z,52.90
2019-05-19T18:10:03.112Z,43.83
2019-05-19T18:12:33.728Z,27.25
2019-05-19T18:15:04.912Z,17.52
2019-05-19T18:17:36.212Z,19.17
2019-05-19T18:20:07.708Z,14.45
2019-05-19T18:22:38.932Z,13.85
2019-05-19T18:25:10.007Z,13.88
2019-05-19T18:27:41.142Z,13.40
2019-05-19T18:30:12.227Z,13.15
2019-05-19T18:32:43.794Z,13.05
2019-05-19T18:35:16.491Z,13.30
2019-05-19T18:37:47.629Z,12.82
2019-05-19T18:40:18.898Z,12.98
2019-05-19T18:42:49.921Z,13.38
2019-05-19T18:45:21.107Z,13.15
2019-05-19T18:47:52.001Z,12.80
2019-05-19T18:50:22.983Z,12.95
2019-05-19T18:52:54.078Z,13.50
2019-05-19T18:55:25.420Z,13.88
2019-05-19T18:57:56.291Z,13.25
2019-05-19T19:00:38.040Z,13.58
2019-05-19T19:03:09.011Z,13.43
2019-05-19T19:05:39.940Z,14.90
2019-05-19T19:08:10.798Z,13.88
2019-05-19T19:10:41.728Z,13.60
2019-05-19T19:13:12.857Z,13.83
2019-05-19T19:15:44.030Z,13.62
2019-05-19T19:18:15.162Z,16.97
2019-05-19T19:20:46.207Z,13.43
2019-05-19T19:23:17.202Z,15.55
2019-05-19T19:25:48.086Z,13.83
2019-05-19T19:28:18.739Z,12.53
2019-05-19T19:30:50.040Z,13.50
2019-05-19T19:33:20.797Z,12.95
2019-05-19T19:35:52.295Z,13.22
2019-05-19T19:38:23.255Z,13.55
2019-05-19T19:40:54.564Z,13.65
2019-05-19T19:43:26.592Z,13.35
2019-05-19T19:45:58.037Z,13.88
2019-05-19T19:48:29.218Z,13.18
2019-05-19T19:51:00.091Z,13.00
2019-05-19T19:53:31.218Z,13.18
2019-05-19T19:56:02.128Z,12.78
2019-05-19T19:58:33.227Z,12.07
2019-05-19T20:01:04.396Z,12.03
2019-05-19T20:03:39.885Z,12.18
2019-05-19T20:06:08.053Z,12.68
2019-05-19T20:08:38.929Z,11.55
2019-05-19T20:11:10.162Z,11.68
2019-05-19T20:13:41.272Z,11.68
2019-05-19T20:16:12.586Z,12.28
2019-05-19T20:18:43.757Z,11.48
2019-05-19T20:21:14.838Z,11.33
2019-05-19T20:23:45.912Z,11.78
2019-05-19T20:26:17.019Z,11.40
2019-05-19T20:28:47.808Z,11.20
2019-05-19T20:31:18.978Z,11.05
2019-05-19T20:33:50.082Z,10.35
2019-05-19T20:36:21.014Z,10.40
2019-05-19T20:38:51.878Z,11.05
2019-05-19T20:41:22.762Z,11.55
2019-05-19T20:43:53.791Z,11.63
2019-05-19T20:46:24.803Z,14.18
2019-05-19T20:48:56.205Z,12.85
2019-05-19T20:51:27.035Z,9.95
2019-05-19T20:53:58.003Z,10.48
2019-05-19T20:56:29.415Z,10.40
2019-05-19T20:59:01.127Z,10.95
2019-05-19T21:01:32.938Z,9.98
2019-05-19T21:04:04.026Z,10.20
2019-05-19T21:06:34.950Z,9.48
2019-05-19T21:09:06.065Z,10.10
2019-05-19T21:11:36.845Z,9.93
2019-05-19T21:14:07.606Z,9.53
2019-05-19T21:16:38.650Z,10.55
2019-05-19T21:19:09.579Z,11.03
2019-05-19T21:21:40.175Z,9.63
2019-05-19T21:24:11.151Z,9.90
2019-05-19T21:26:41.873Z,9.85
2019-05-19T21:29:12.731Z,10.00
2019-05-19T21:31:43.537Z,10.10
2019-05-19T21:34:14.477Z,9.78
2019-05-19T21:36:45.223Z,10.65
2019-05-19T21:39:16.234Z,10.70
2019-05-19T21:41:47.031Z,10.18
2019-05-19T21:44:17.821Z,10.90
2019-05-19T21:46:48.671Z,10.55
2019-05-19T21:49:19.600Z,10.88
2019-05-19T21:51:50.273Z,9.80
2019-05-19T21:54:21.053Z,10.90
2019-05-19T21:56:52.116Z,10.45
2019-05-19T21:59:22.741Z,10.38
2019-05-19T22:01:53.890Z,10.82
2019-05-19T22:04:24.715Z,10.43
2019-05-19T22:07:03.278Z,10.40
2019-05-19T22:09:34.388Z,11.38
2019-05-19T22:12:05.298Z,10.78
2019-05-19T22:14:39.167Z,11.15
2019-05-19T22:17:10.691Z,9.95
2019-05-19T22:19:42.069Z,10.32
2019-05-19T22:22:13.088Z,10.13
2019-05-19T22:24:43.867Z,9.93
2019-05-19T22:27:14.772Z,10.45
2019-05-19T22:29:45.818Z,10.65
2019-05-19T22:32:16.545Z,10.43
2019-05-19T22:34:47.402Z,9.65
2019-05-19T22:37:19.151Z,9.68
2019-05-19T22:39:50.930Z,9.88
2019-05-19T22:42:21.766Z,9.83
2019-05-19T22:44:52.680Z,9.53
2019-05-19T22:47:23.837Z,9.60
2019-05-19T22:49:54.868Z,10.05
2019-05-19T22:52:25.473Z,10.00
2019-05-19T22:54:56.337Z,9.65
2019-05-19T22:57:33.820Z,9.33
2019-05-19T23:00:05.470Z,9.80
2019-05-19T23:02:36.550Z,9.15
2019-05-19T23:05:07.397Z,9.28
2019-05-19T23:07:38.286Z,9.43
2019-05-19T23:10:09.041Z,8.80
2019-05-19T23:12:39.880Z,8.05
2019-05-19T23:15:11.056Z,9.15
2019-05-19T23:17:41.752Z,9.20
2019-05-19T23:20:12.794Z,9.23
2019-05-19T23:22:43.930Z,8.55
2019-05-19T23:25:14.560Z,9.00
2019-05-19T23:27:45.407Z,9.30
2019-05-19T23:30:16.430Z,9.35
2019-05-19T23:32:48.049Z,8.93
2019-05-19T23:35:19.038Z,8.68
2019-05-19T23:37:50.544Z,9.18
2019-05-19T23:40:22.020Z,8.98
2019-05-19T23:42:52.991Z,9.98
2019-05-19T23:45:24.548Z,9.13
2019-05-19T23:47:55.916Z,9.93
2019-05-19T23:50:26.733Z,10.00
2019-05-19T23:52:57.665Z,9.45
2019-05-19T23:55:28.514Z,9.90
2019-05-19T23:58:00.215Z,9.83
